Time;durP1;ratioP1;P1;durP2;ratioP2;P2;SDS_P1;SDS_P2;PMS_P1;PMS_P2;Temp;Humidity;BMP_temperature;BMP_pressure;BME280_temperature;BME280_humidity;BME280_pressure;Samples;Min_cycle;Max_cycle;Signal;HPM_P1;HPM_P2
2023/08/31 00:01:54;;;;;;;36.10;3.47;;;14.10;13.50;;;;;;5034063;28;20438;-79
2023/08/31 00:04:20;;;;;;;35.60;3.20;;;14.20;12.40;;;;;;5020411;28;20393;-79
2023/08/31 00:06:46;;;;;;;41.90;3.50;;;14.20;12.30;;;;;;5026028;28;20496;-79
2023/08/31 00:09:25;;;;;;;41.30;4.03;;;14.20;13.30;;;;;;5025963;28;20173;-79
2023/08/31 00:11:51;;;;;;;34.43;2.93;;;14.20;12.50;;;;;;5014274;28;20451;-80
2023/08/31 00:14:17;;;;;;;38.93;3.60;;;14.20;13.40;;;;;;5031583;28;20393;-79
2023/08/31 00:16:45;;;;;;;40.33;3.40;;;14.20;14.50;;;;;;5019173;28;20552;-80
2023/08/31 00:19:19;;;;;;;46.20;3.90;;;14.20;15.30;;;;;;5027005;28;20430;-79
2023/08/31 00:21:45;;;;;;;37.83;3.70;;;14.10;16.10;;;;;;5019636;28;20405;-79
2023/08/31 00:24:14;;;;;;;36.50;3.47;;;14.20;13.30;;;;;;5025550;28;20447;-80
2023/08/31 00:26:50;;;;;;;38.90;3.53;;;14.20;14.70;;;;;;5028814;28;20446;-79
2023/08/31 00:29:25;;;;;;;36.83;3.37;;;14.20;13.00;;;;;;5036873;28;20770;-79
2023/08/31 00:31:53;;;;;;;36.73;3.50;;;14.10;11.90;;;;;;5031456;28;20503;-79
2023/08/31 00:34:42;;;;;;;37.70;3.20;;;14.20;12.80;;;;;;5027503;28;20424;-79
2023/08/31 00:37:13;;;;;;;41.30;4.30;;;14.00;9.90;;;;;;5017478;28;20419;-79
2023/08/31 00:39:43;;;;;;;40.93;4.60;;;14.10;13.60;;;;;;5031290;28;20385;-79
2023/08/31 00:42:25;;;;;;;44.30;4.53;;;14.10;13.60;;;;;;5033516;28;20426;-79
2023/08/31 00:44:55;;;;;;;35.97;4.30;;;14.20;14.60;;;;;;5032346;28;20419;-79
2023/08/31 00:47:21;;;;;;;41.53;4.50;;;14.00;14.60;;;;;;5032728;28;20418;-79
2023/08/31 00:50:01;;;;;;;37.00;4.23;;;14.10;17.10;;;;;;5023305;28;20493;-79
2023/08/31 00:52:26;;;;;;;39.80;4.20;;;14.10;19.20;;;;;;5027967;28;20461;-79
2023/08/31 00:55:12;;;;;;;41.40;4.47;;;14.00;16.90;;;;;;5029370;28;20394;-79
2023/08/31 00:57:49;;;;;;;38.87;4.40;;;13.90;18.80;;;;;;5028851;28;20214;-81
2023/08/31 01:00:19;;;;;;;35.33;3.83;;;13.90;19.20;;;;;;5024910;28;20420;-81
2023/08/31 01:03:12;;;;;;;39.67;4.50;;;13.90;19.30;;;;;;5023456;28;20933;-81
2023/08/31 01:06:21;;;;;;;39.33;4.47;;;13.80;18.20;;;;;;5030228;28;20442;-81
2023/08/31 01:09:16;;;;;;;44.90;4.43;;;13.70;18.00;;;;;;5034615;28;20521;-81
2023/08/31 01:12:02;;;;;;;41.10;4.23;;;13.70;18.10;;;;;;5024208;28;20440;-81
2023/08/31 01:14:38;;;;;;;43.77;4.57;;;13.60;15.90;;;;;;5034944;28;20765;-81
2023/08/31 01:17:08;;;;;;;36.37;4.20;;;13.50;18.50;;;;;;5031506;28;20409;-81
2023/08/31 01:19:46;;;;;;;37.40;4.53;;;13.40;19.30;;;;;;5036276;28;20932;-81
2023/08/31 01:22:21;;;;;;;35.67;4.03;;;13.40;21.40;;;;;;5025925;28;20431;-81
2023/08/31 01:24:49;;;;;;;41.63;4.50;;;13.40;21.60;;;;;;5025504;28;20473;-81
2023/08/31 01:27:15;;;;;;;40.20;4.73;;;13.40;19.20;;;;;;5038733;28;20431;-81
2023/08/31 01:29:42;;;;;;;41.20;5.30;;;13.30;21.70;;;;;;5039349;28;20415;-81
2023/08/31 01:32:13;;;;;;;36.67;4.77;;;13.30;22.30;;;;;;5030982;28;20450;-81
2023/08/31 01:35:01;;;;;;;39.57;5.30;;;13.40;22.80;;;;;;5034562;28;20502;-81
2023/08/31 01:37:53;;;;;;;36.30;4.30;;;13.30;22.40;;;;;;5034424;28;20415;-81
2023/08/31 01:40:32;;;;;;;36.60;4.57;;;13.30;21.40;;;;;;5032681;28;20394;-81
2023/08/31 01:43:42;;;;;;;42.73;5.40;;;13.30;23.10;;;;;;5032712;28;20814;-81
2023/08/31 01:49:36;;;;;;;43.23;4.47;;;13.30;25.80;;;;;;5036891;28;20434;-81
2023/08/31 01:56:06;;;;;;;43.57;4.60;;;13.50;25.00;;;;;;5035440;28;20449;-81
2023/08/31 01:58:54;;;;;;;39.50;5.10;;;13.40;21.80;;;;;;5023074;28;20450;-79
2023/08/31 02:01:24;;;;;;;36.67;4.63;;;13.40;23.60;;;;;;5037558;28;20425;-79
2023/08/31 02:04:00;;;;;;;40.03;5.47;;;13.40;20.90;;;;;;5033704;28;20484;-79
2023/08/31 02:06:54;;;;;;;41.70;5.23;;;13.50;21.50;;;;;;5037823;28;20931;-79
2023/08/31 02:09:31;;;;;;;37.93;4.83;;;13.50;21.10;;;;;;5029697;28;20787;-79
2023/08/31 02:12:30;;;;;;;41.50;5.67;;;13.50;18.90;;;;;;5035171;28;20970;-80
2023/08/31 02:15:01;;;;;;;41.97;5.00;;;13.50;22.10;;;;;;5030082;28;20423;-80
2023/08/31 02:21:07;;;;;;;44.47;5.90;;;13.60;20.90;;;;;;5032680;28;20429;-81
2023/08/31 02:23:48;;;;;;;41.53;5.77;;;13.60;25.50;;;;;;5031778;28;20447;-79
2023/08/31 02:26:24;;;;;;;39.53;5.10;;;13.70;22.50;;;;;;5034768;28;20441;-80
2023/08/31 02:29:30;;;;;;;37.63;4.90;;;13.70;21.20;;;;;;5035887;28;20418;-79
2023/08/31 02:32:30;;;;;;;39.47;5.20;;;13.70;21.30;;;;;;5030972;28;20460;-79
2023/08/31 02:35:18;;;;;;;45.00;5.70;;;13.70;21.10;;;;;;5035228;28;20938;-79
2023/08/31 02:37:49;;;;;;;39.83;5.40;;;13.70;20.10;;;;;;5034293;28;20485;-79
2023/08/31 02:40:48;;;;;;;43.17;5.47;;;13.70;16.50;;;;;;5034207;28;20422;-79
2023/08/31 02:43:15;;;;;;;43.30;5.23;;;13.70;17.90;;;;;;5028304;28;20427;-81
2023/08/31 02:45:40;;;;;;;42.30;6.03;;;13.80;15.70;;;;;;5033034;28;20456;-81
2023/08/31 02:48:10;;;;;;;49.57;5.80;;;13.80;16.50;;;;;;5028995;28;20429;-81
2023/08/31 02:50:36;;;;;;;55.97;5.47;;;13.80;16.60;;;;;;5032891;28;20203;-81
2023/08/31 02:53:02;;;;;;;41.63;4.80;;;13.80;15.80;;;;;;5027716;28;20435;-81
2023/08/31 02:55:36;;;;;;;41.07;5.20;;;13.90;14.80;;;;;;5033657;28;20480;-81
2023/08/31 02:58:19;;;;;;;41.53;5.23;;;13.90;11.30;;;;;;5033950;28;20972;-80
2023/08/31 03:00:49;;;;;;;38.47;4.70;;;13.80;11.90;;;;;;5032243;28;20461;-79
2023/08/31 03:03:16;;;;;;;37.80;5.90;;;13.80;15.10;;;;;;5033673;28;20415;-79
2023/08/31 03:05:42;;;;;;;43.90;5.90;;;13.90;14.20;;;;;;5035176;28;20430;-79
2023/08/31 03:08:30;;;;;;;41.53;6.20;;;13.90;13.60;;;;;;5034252;28;20400;-79
2023/08/31 03:11:18;;;;;;;47.13;5.70;;;13.90;13.40;;;;;;5017946;28;20512;-79
2023/08/31 03:17:05;;;;;;;40.40;5.70;;;13.80;16.30;;;;;;5027900;28;20388;-79
2023/08/31 03:20:24;;;;;;;38.17;6.00;;;13.90;12.90;;;;;;5031908;28;20918;-79
2023/08/31 03:22:50;;;;;;;46.03;5.67;;;13.80;13.40;;;;;;5031286;28;20199;-79
2023/08/31 03:25:26;;;;;;;42.73;5.80;;;13.80;11.50;;;;;;5034681;28;20406;-79
2023/08/31 03:28:07;;;;;;;41.40;5.43;;;13.90;11.40;;;;;;5034773;28;20190;-81
2023/08/31 03:31:09;;;;;;;45.07;6.57;;;13.80;11.10;;;;;;5034342;28;20537;-81
2023/08/31 03:33:37;;;;;;;50.53;6.00;;;13.80;10.40;;;;;;4995958;28;20429;-81
2023/08/31 03:36:24;;;;;;;40.60;6.70;;;13.70;10.60;;;;;;4980992;28;20434;-81
2023/08/31 03:38:50;;;;;;;44.40;6.27;;;13.70;11.40;;;;;;4995083;28;20433;-81
2023/08/31 03:41:31;;;;;;;47.30;6.83;;;13.60;12.00;;;;;;4994748;28;20487;-81
2023/08/31 03:44:01;;;;;;;46.80;6.37;;;13.60;15.00;;;;;;4987214;28;20189;-80
2023/08/31 03:46:27;;;;;;;43.83;7.13;;;13.70;15.90;;;;;;4971727;28;20405;-80
2023/08/31 03:49:12;;;;;;;40.93;6.60;;;13.70;15.40;;;;;;4993299;28;20463;-79
2023/08/31 03:51:38;;;;;;;41.73;6.20;;;13.70;13.90;;;;;;4989622;28;20443;-79
2023/08/31 03:54:24;;;;;;;37.60;6.20;;;13.90;17.80;;;;;;4993285;28;20445;-79
2023/08/31 03:57:18;;;;;;;41.73;5.67;;;13.60;13.10;;;;;;4988074;28;20178;-79
2023/08/31 03:59:55;;;;;;;39.37;6.10;;;13.70;12.20;;;;;;4972827;28;20944;-79
2023/08/31 04:02:25;;;;;;;43.97;6.93;;;13.60;7.20;;;;;;4991138;28;20499;-79
2023/08/31 04:04:55;;;;;;;48.20;7.80;;;13.60;9.90;;;;;;5006355;28;20416;-79
2023/08/31 04:07:25;;;;;;;51.67;6.73;;;13.60;7.20;;;;;;5009083;28;20892;-79
2023/08/31 04:10:01;;;;;;;40.90;5.73;;;13.60;6.80;;;;;;5014223;28;20985;-79
2023/08/31 04:12:54;;;;;;;43.87;6.60;;;13.60;8.20;;;;;;5033623;28;20454;-79
2023/08/31 04:15:37;;;;;;;38.97;5.93;;;13.60;7.30;;;;;;5033990;28;20410;-81
2023/08/31 04:18:07;;;;;;;41.53;6.40;;;13.50;5.50;;;;;;5033836;28;20935;-81
2023/08/31 04:20:51;;;;;;;42.30;6.13;;;13.40;9.20;;;;;;5019014;28;20435;-81
2023/08/31 04:23:19;;;;;;;46.90;6.87;;;13.40;10.50;;;;;;5026075;28;20804;-81
2023/08/31 04:25:51;;;;;;;41.93;6.80;;;13.40;10.60;;;;;;5022767;28;20439;-81
2023/08/31 04:28:48;;;;;;;43.40;6.13;;;13.40;10.40;;;;;;5020352;28;20468;-81
2023/08/31 04:31:25;;;;;;;39.07;6.47;;;13.40;7.30;;;;;;5023534;28;20455;-83
2023/08/31 04:34:12;;;;;;;43.73;6.30;;;13.50;9.50;;;;;;5029802;28;20422;-81
2023/08/31 04:39:59;;;;;;;40.90;7.03;;;13.50;11.30;;;;;;5028913;28;20422;-81
2023/08/31 04:42:31;;;;;;;41.83;6.03;;;13.40;9.50;;;;;;5031413;28;20430;-81
2023/08/31 04:45:48;;;;;;;53.07;6.70;;;13.40;8.80;;;;;;5031754;28;20187;-82
2023/08/31 04:48:25;;;;;;;43.63;7.03;;;13.40;9.70;;;;;;5022348;28;20438;-81
2023/08/31 04:51:30;;;;;;;45.37;6.47;;;13.30;7.80;;;;;;5027901;28;20486;-81
2023/08/31 04:54:07;;;;;;;40.70;6.43;;;13.30;10.50;;;;;;5023555;28;20438;-81
2023/08/31 04:56:34;;;;;;;39.50;6.40;;;13.20;11.70;;;;;;5025654;28;20410;-81
2023/08/31 04:59:04;;;;;;;51.30;6.70;;;13.10;9.10;;;;;;5028124;28;20414;-79
2023/08/31 05:01:37;;;;;;;44.33;6.73;;;13.00;8.80;;;;;;5021888;28;20431;-78
2023/08/31 05:04:24;;;;;;;40.90;6.67;;;13.00;13.60;;;;;;5022738;28;20415;-78
2023/08/31 05:06:55;;;;;;;45.07;7.10;;;13.00;14.50;;;;;;5033278;28;20403;-79
2023/08/31 05:09:20;;;;;;;43.00;7.07;;;12.90;14.00;;;;;;5032010;28;20457;-78
2023/08/31 05:11:46;;;;;;;40.03;6.67;;;12.90;14.90;;;;;;5022083;28;20487;-78
2023/08/31 05:14:17;;;;;;;43.00;7.70;;;13.00;17.60;;;;;;5025299;28;20590;-79
2023/08/31 05:16:44;;;;;;;42.97;7.30;;;12.90;14.70;;;;;;5027324;28;20209;-81
2023/08/31 05:19:10;;;;;;;43.90;7.20;;;13.00;16.40;;;;;;5024973;28;20430;-80
2023/08/31 05:21:43;;;;;;;50.13;7.80;;;12.90;16.10;;;;;;5022936;28;20426;-81
2023/08/31 05:24:08;;;;;;;47.73;7.10;;;12.90;17.70;;;;;;5030910;28;20666;-81
2023/08/31 05:26:37;;;;;;;42.37;7.47;;;12.80;17.90;;;;;;5031884;28;20423;-81
2023/08/31 05:29:05;;;;;;;44.20;7.00;;;12.80;19.00;;;;;;5031163;28;20226;-81
2023/08/31 05:31:43;;;;;;;52.50;7.33;;;12.70;22.10;;;;;;5031938;28;20462;-78
2023/08/31 05:34:54;;;;;;;43.20;7.40;;;12.70;22.30;;;;;;5029569;28;20469;-78
2023/08/31 05:37:20;;;;;;;42.57;7.77;;;12.70;24.50;;;;;;5028977;28;20422;-78
2023/08/31 05:39:49;;;;;;;41.73;7.50;;;12.80;26.10;;;;;;5023568;28;20432;-78
2023/08/31 05:42:15;;;;;;;47.63;7.73;;;12.80;29.90;;;;;;5019548;28;20264;-78
2023/08/31 05:44:49;;;;;;;47.80;8.17;;;12.80;27.00;;;;;;5023969;28;20457;-79
2023/08/31 05:47:42;;;;;;;47.67;7.73;;;12.90;27.90;;;;;;5019325;28;20438;-79
2023/08/31 05:50:09;;;;;;;46.70;8.40;;;12.90;27.20;;;;;;5021297;28;20432;-80
2023/08/31 05:52:34;;;;;;;42.73;7.90;;;12.90;26.20;;;;;;5026540;28;20817;-83
2023/08/31 05:55:19;;;;;;;50.77;8.00;;;13.00;28.30;;;;;;5029204;28;20420;-80
2023/08/31 05:57:55;;;;;;;61.90;9.40;;;13.00;28.80;;;;;;5030375;28;20264;-81
2023/08/31 06:00:20;;;;;;;53.20;9.23;;;13.00;28.30;;;;;;5015708;28;20478;-81
2023/08/31 06:02:46;;;;;;;52.63;9.13;;;13.10;30.00;;;;;;5033113;28;20818;-80
2023/08/31 06:05:48;;;;;;;45.33;8.80;;;13.00;29.90;;;;;;5024692;28;20420;-80
2023/08/31 06:08:19;;;;;;;42.10;8.97;;;13.10;30.00;;;;;;5026388;28;20219;-79
2023/08/31 06:10:49;;;;;;;44.97;9.43;;;13.10;29.40;;;;;;5031164;28;21000;-79
2023/08/31 06:13:19;;;;;;;51.70;9.40;;;13.20;26.50;;;;;;5034780;28;20511;-79
2023/08/31 06:15:44;;;;;;;49.40;9.20;;;13.20;26.30;;;;;;5028536;28;20830;-80
2023/08/31 06:18:19;;;;;;;48.73;8.83;;;13.30;21.60;;;;;;5033113;28;20465;-79
2023/08/31 06:20:45;;;;;;;46.57;8.77;;;13.30;20.60;;;;;;5029237;28;20242;-79
2023/08/31 06:23:48;;;;;;;47.37;8.30;;;13.30;19.70;;;;;;5035432;28;20403;-79
2023/08/31 06:26:19;;;;;;;44.30;9.00;;;13.30;10.50;;;;;;5025172;28;20279;-80
2023/08/31 06:28:55;;;;;;;48.97;9.93;;;13.30;16.30;;;;;;5029458;28;20514;-80
2023/08/31 06:31:25;;;;;;;41.13;8.43;;;13.30;11.40;;;;;;5031228;28;20820;-79
2023/08/31 06:33:51;;;;;;;43.93;8.03;;;13.40;10.60;;;;;;5017722;28;20432;-81
2023/08/31 06:36:25;;;;;;;43.63;8.23;;;13.50;5.80;;;;;;5040974;28;20831;-81
2023/08/31 06:38:55;;;;;;;44.50;8.53;;;13.40;5.90;;;;;;5023017;28;20836;-81
2023/08/31 06:41:21;;;;;;;43.83;8.73;;;13.60;6.80;;;;;;5030277;28;20417;-82
2023/08/31 06:43:47;;;;;;;43.40;8.20;;;13.70;8.00;;;;;;5017799;28;20404;-81
2023/08/31 06:46:14;;;;;;;43.83;7.73;;;;;;;;;;5028794;28;20177;-81
2023/08/31 06:48:39;;;;;;;47.00;8.50;;;13.80;7.10;;;;;;5028051;28;20745;-81
2023/08/31 06:51:05;;;;;;;49.93;8.43;;;13.80;7.60;;;;;;5018964;28;21027;-81
2023/08/31 06:53:34;;;;;;;44.10;7.63;;;13.90;1.00;;;;;;5023263;28;20567;-81
2023/08/31 06:56:18;;;;;;;42.43;7.37;;;13.90;1.00;;;;;;5026415;28;20177;-81
2023/08/31 06:58:49;;;;;;;43.37;7.40;;;14.10;1.00;;;;;;5015607;28;20423;-81
2023/08/31 07:01:19;;;;;;;44.13;7.13;;;14.30;1.00;;;;;;5026160;28;20759;-82
2023/08/31 07:03:45;;;;;;;45.83;7.50;;;14.40;1.00;;;;;;5029031;28;20414;-79
2023/08/31 07:06:11;;;;;;;48.33;7.27;;;14.40;1.00;;;;;;5034094;28;20540;-79
2023/08/31 07:08:45;;;;;;;40.10;7.07;;;14.30;1.00;;;;;;5025016;28;20430;-79
2023/08/31 07:11:13;;;;;;;46.00;7.00;;;14.40;1.00;;;;;;5021954;28;20203;-80
2023/08/31 07:13:49;;;;;;;39.47;6.00;;;14.40;1.00;;;;;;5026229;28;20943;-80
2023/08/31 07:16:15;;;;;;;41.57;6.70;;;14.40;1.00;;;;;;5030399;28;20406;-80
2023/08/31 07:19:24;;;;;;;37.37;6.20;;;14.60;1.00;;;;;;5025239;28;20427;-82
2023/08/31 07:22:12;;;;;;;40.03;5.60;;;14.70;1.00;;;;;;5025943;28;20197;-81
2023/08/31 07:24:55;;;;;;;38.93;5.47;;;14.80;1.00;;;;;;5032551;28;20825;-82
2023/08/31 07:27:25;;;;;;;36.67;5.43;;;15.00;1.00;;;;;;5025430;28;20947;-82
2023/08/31 07:29:55;;;;;;;36.60;5.40;;;15.50;1.00;;;;;;5033766;28;20965;-81
2023/08/31 07:32:37;;;;;;;35.17;5.00;;;15.90;1.00;;;;;;5022612;28;20438;-81
2023/08/31 07:35:24;;;;;;;36.60;4.77;;;16.00;1.00;;;;;;5033722;28;20436;-80
2023/08/31 07:38:18;;;;;;;35.30;4.57;;;15.80;1.00;;;;;;5019428;28;20463;-80
2023/08/31 07:40:45;;;;;;;35.63;4.23;;;16.10;1.00;;;;;;5020247;28;20403;-80
2023/08/31 07:43:10;;;;;;;35.97;4.70;;;16.20;1.00;;;;;;5027661;28;20411;-80
2023/08/31 07:45:36;;;;;;;37.10;4.10;;;16.10;1.00;;;;;;5026177;28;20788;-80
2023/08/31 07:48:03;;;;;;;36.57;4.03;;;16.30;1.00;;;;;;5028883;28;20186;-81
2023/08/31 07:50:37;;;;;;;33.60;3.37;;;16.20;1.00;;;;;;5023794;28;20189;-82
2023/08/31 07:53:03;;;;;;;34.80;4.13;;;16.10;1.00;;;;;;5029814;28;20902;-81
2023/08/31 07:55:29;;;;;;;34.20;4.03;;;16.20;1.00;;;;;;5027310;28;20505;-82
2023/08/31 07:57:55;;;;;;;39.60;4.37;;;16.20;1.00;;;;;;5022571;28;20921;-82
2023/08/31 08:00:31;;;;;;;37.43;3.70;;;16.30;1.00;;;;;;5021066;28;20242;-82
2023/08/31 08:03:18;;;;;;;38.93;4.07;;;16.30;1.00;;;;;;5025123;28;20554;-80
2023/08/31 08:05:56;;;;;;;42.73;3.90;;;16.60;1.00;;;;;;5020733;28;20411;-82
2023/08/31 08:08:21;;;;;;;37.30;3.80;;;16.80;1.00;;;;;;5018827;28;20437;-81
2023/08/31 08:10:52;;;;;;;42.10;4.10;;;16.80;1.00;;;;;;5023066;28;20556;-82
2023/08/31 08:13:18;;;;;;;38.80;3.80;;;16.80;1.00;;;;;;5028804;28;20174;-83
2023/08/31 08:15:49;;;;;;;37.23;3.50;;;16.80;1.00;;;;;;5029290;28;20427;-83
2023/08/31 08:18:25;;;;;;;33.93;3.20;;;16.90;1.00;;;;;;5027897;28;20182;-78
2023/08/31 08:21:01;;;;;;;34.83;3.33;;;16.90;1.00;;;;;;5026290;28;20428;-78
2023/08/31 08:23:31;;;;;;;37.70;3.10;;;16.90;1.00;;;;;;5033859;28;20413;-79
2023/08/31 08:25:59;;;;;;;33.70;3.27;;;16.80;1.00;;;;;;5032133;28;20437;-79
2023/08/31 08:28:43;;;;;;;39.40;3.00;;;16.90;1.00;;;;;;5013206;28;20408;-79
2023/08/31 08:31:19;;;;;;;32.67;3.20;;;17.20;1.00;;;;;;5028953;28;20538;-79
2023/08/31 08:37:06;;;;;;;34.27;3.10;;;17.30;1.00;;;;;;5034025;28;20409;-83
2023/08/31 08:39:43;;;;;;;34.50;2.83;;;17.40;1.00;;;;;;5014733;28;20395;-83
2023/08/31 08:42:13;;;;;;;34.57;2.50;;;17.50;1.00;;;;;;5030934;28;20274;-82
2023/08/31 08:44:43;;;;;;;34.47;2.60;;;17.50;1.00;;;;;;5021030;28;20471;-82
2023/08/31 08:47:10;;;;;;;37.57;2.97;;;17.70;1.00;;;;;;5020657;28;20409;-82
2023/08/31 08:49:36;;;;;;;32.33;2.50;;;18.00;1.00;;;;;;5026886;28;20430;-78
2023/08/31 08:52:03;;;;;;;35.80;3.07;;;18.30;1.00;;;;;;5017870;28;20474;-78
2023/08/31 08:54:28;;;;;;;36.87;2.20;;;18.40;1.00;;;;;;5024971;28;20401;-78
2023/08/31 08:57:01;;;;;;;36.10;2.70;;;18.60;1.00;;;;;;5028456;28;20501;-78
2023/08/31 08:59:32;;;;;;;33.77;2.30;;;18.80;1.00;;;;;;5023734;28;20186;-78
2023/08/31 09:01:57;;;;;;;35.10;2.60;;;18.50;1.00;;;;;;5019933;28;20389;-77
2023/08/31 09:04:23;;;;;;;35.83;2.80;;;18.70;1.00;;;;;;5026451;28;20455;-83
2023/08/31 09:06:55;;;;;;;39.93;3.07;;;18.90;1.00;;;;;;5030539;28;20181;-83
2023/08/31 09:09:25;;;;;;;37.57;2.50;;;18.90;1.00;;;;;;5033372;28;20635;-83
2023/08/31 09:11:50;;;;;;;36.00;2.67;;;19.00;1.00;;;;;;5019384;28;20791;-82
2023/08/31 09:14:20;;;;;;;47.93;2.90;;;18.90;1.00;;;;;;5019157;28;20474;-82
2023/08/31 09:16:50;;;;;;;42.40;2.70;;;18.90;1.00;;;;;;5027733;28;20588;-82
2023/08/31 09:19:23;;;;;;;38.37;2.60;;;19.00;1.00;;;;;;5019754;28;20911;-79
2023/08/31 09:21:50;;;;;;;36.50;2.50;;;19.10;1.00;;;;;;5018922;28;20411;-79
2023/08/31 09:24:18;;;;;;;36.13;2.23;;;19.10;1.00;;;;;;5017811;28;20506;-79
2023/08/31 09:26:46;;;;;;;34.40;2.40;;;18.90;1.00;;;;;;5033294;28;20826;-80
2023/08/31 09:29:13;;;;;;;35.03;2.60;;;18.90;1.00;;;;;;5033397;28;20406;-79
2023/08/31 09:31:45;;;;;;;33.77;2.30;;;19.00;1.00;;;;;;5028777;28;20529;-78
2023/08/31 09:34:11;;;;;;;35.90;2.40;;;19.20;1.00;;;;;;5021347;28;20431;-79
2023/08/31 09:36:38;;;;;;;35.00;2.60;;;19.20;1.00;;;;;;5017521;28;20382;-79
2023/08/31 09:39:05;;;;;;;35.87;2.67;;;19.20;1.00;;;;;;5020102;28;20414;-78
2023/08/31 09:41:31;;;;;;;36.37;2.20;;;19.20;1.00;;;;;;5016036;28;20441;-78
2023/08/31 09:44:15;;;;;;;33.80;2.30;;;19.20;1.00;;;;;;5033894;28;20405;-79
2023/08/31 09:46:40;;;;;;;37.50;3.03;;;19.20;1.00;;;;;;5027930;28;20204;-78
2023/08/31 09:49:07;;;;;;;42.20;2.80;;;19.50;1.00;;;;;;5019150;28;20774;-79
2023/08/31 09:51:50;;;;;;;35.10;2.63;;;19.80;1.00;;;;;;5018168;28;20468;-79
2023/08/31 09:54:21;;;;;;;33.40;2.13;;;19.90;1.00;;;;;;5024269;28;20427;-79
2023/08/31 09:56:56;;;;;;;38.87;2.93;;;20.00;1.00;;;;;;5033295;28;20436;-79
2023/08/31 09:59:26;;;;;;;35.63;2.20;;;20.00;1.00;;;;;;5016812;28;20542;-79
2023/08/31 10:01:52;;;;;;;31.57;2.00;;;19.80;1.00;;;;;;5030512;28;20575;-79
2023/08/31 10:14:51;;;;;;;31.90;2.10;;;19.10;1.00;;;;;;5029348;28;20807;-83
2023/08/31 10:17:17;;;;;;;35.20;2.70;;;19.20;1.00;;;;;;5030138;28;20525;-83
2023/08/31 10:19:43;;;;;;;32.33;2.00;;;19.20;1.00;;;;;;5008015;28;20550;-80
2023/08/31 10:22:08;;;;;;;37.60;2.60;;;19.20;1.00;;;;;;5020406;28;20877;-79
2023/08/31 10:25:06;;;;;;;35.20;2.70;;;19.40;1.00;;;;;;5027151;28;20199;-79
2023/08/31 10:27:39;;;;;;;34.07;2.00;;;19.50;1.00;;;;;;5023439;28;20193;-79
2023/08/31 10:30:15;;;;;;;37.90;2.43;;;19.30;1.00;;;;;;5026039;28;20578;-79
2023/08/31 10:33:09;;;;;;;34.40;2.60;;;19.40;1.00;;;;;;5030506;28;20441;-79
2023/08/31 10:39:21;;;;;;;35.83;1.93;;;19.60;1.00;;;;;;4968626;28;20555;-82
2023/08/31 10:42:01;;;;;;;34.17;2.10;;;20.10;1.00;;;;;;4962208;28;20508;-83
2023/08/31 10:45:12;;;;;;;37.60;2.00;;;20.30;1.00;;;;;;4944763;29;20435;-83
2023/08/31 10:47:43;;;;;;;32.53;1.80;;;20.70;1.00;;;;;;4942127;28;20811;-82
2023/08/31 10:53:37;;;;;;;34.90;2.00;;;21.00;1.00;;;;;;4970810;28;20470;-84
2023/08/31 10:56:19;;;;;;;35.80;1.80;;;21.30;1.00;;;;;;4965228;28;20543;-83
2023/08/31 10:59:24;;;;;;;33.77;2.10;;;21.10;1.00;;;;;;4946997;28;21032;-83
2023/08/31 11:02:08;;;;;;;33.03;1.97;;;21.00;1.00;;;;;;4968900;28;20429;-83
2023/08/31 11:05:10;;;;;;;34.63;1.90;;;20.90;1.00;;;;;;4968613;28;20396;-82
2023/08/31 11:08:00;;;;;;;34.43;1.83;;;20.80;1.00;;;;;;4972050;28;20427;-83
2023/08/31 11:10:29;;;;;;;34.20;2.00;;;20.70;1.00;;;;;;4955082;28;20429;-83
2023/08/31 11:13:16;;;;;;;34.03;2.00;;;20.80;1.00;;;;;;5004901;28;20448;-83
2023/08/31 11:16:24;;;;;;;32.23;1.77;;;20.80;1.00;;;;;;5030805;28;20782;-82
2023/08/31 11:18:55;;;;;;;35.03;1.83;;;;;;;;;;5028562;28;21021;-83
2023/08/31 11:24:43;;;;;;;34.97;1.70;;;20.90;1.00;;;;;;5033187;28;20384;-83
2023/08/31 11:27:13;;;;;;;33.37;2.00;;;20.90;1.00;;;;;;5033877;28;21470;-83
2023/08/31 11:29:49;;;;;;;33.33;1.90;;;20.90;1.00;;;;;;5033313;28;20430;-83
2023/08/31 11:33:00;;;;;;;33.43;2.10;;;20.70;1.00;;;;;;5031185;28;20497;-84
2023/08/31 11:35:43;;;;;;;32.87;1.73;;;20.60;1.00;;;;;;5033174;28;20940;-79
2023/08/31 11:38:30;;;;;;;32.50;1.73;;;20.70;1.00;;;;;;5034299;28;20447;-79
2023/08/31 11:41:13;;;;;;;32.47;1.53;;;20.80;1.00;;;;;;5015555;28;20440;-78
2023/08/31 11:43:38;;;;;;;34.80;2.00;;;20.90;1.00;;;;;;5021174;28;20855;-79
2023/08/31 11:46:42;;;;;;;35.70;2.00;;;21.00;1.00;;;;;;5022680;28;20452;-80
2023/08/31 11:49:13;;;;;;;33.10;2.00;;;21.20;1.00;;;;;;5025823;28;20183;-79
2023/08/31 11:55:00;;;;;;;36.57;2.27;;;21.40;1.00;;;;;;5031311;28;20465;-83
2023/08/31 11:57:31;;;;;;;36.03;1.93;;;21.40;1.00;;;;;;5014970;28;20439;-83
2023/08/31 12:00:30;;;;;;;32.13;1.83;;;20.20;1.00;;;;;;5031043;28;20182;-83
2023/08/31 12:03:13;;;;;;;32.20;1.60;;;21.50;1.00;;;;;;5020130;28;20434;-83
2023/08/31 12:05:57;;;;;;;32.50;1.90;;;21.70;1.00;;;;;;5022322;28;20429;-79
2023/08/31 12:11:38;;;;;;;31.17;1.70;;;21.70;1.00;;;;;;5033292;28;20430;-79
2023/08/31 12:14:24;;;;;;;33.23;2.30;;;21.60;1.00;;;;;;5021385;28;20405;-78
2023/08/31 12:16:50;;;;;;;33.60;2.10;;;21.60;1.00;;;;;;5023342;28;20189;-79
2023/08/31 12:19:49;;;;;;;39.10;2.20;;;21.70;1.00;;;;;;5023633;28;20863;-78
2023/08/31 12:22:14;;;;;;;38.10;2.07;;;21.90;1.00;;;;;;5027155;28;20435;-78
2023/08/31 12:24:43;;;;;;;32.43;1.70;;;22.00;1.00;;;;;;5018588;28;20431;-78
2023/08/31 12:27:19;;;;;;;40.20;1.87;;;22.30;1.00;;;;;;5029194;28;20206;-79
2023/08/31 12:29:50;;;;;;;35.03;2.20;;;22.30;1.00;;;;;;5021335;28;20436;-78
2023/08/31 12:32:19;;;;;;;33.50;2.27;;;22.50;1.00;;;;;;5027166;28;20460;-79
2023/08/31 12:34:55;;;;;;;33.20;1.83;;;22.50;1.00;;;;;;5021414;28;20420;-78
2023/08/31 12:38:00;;;;;;;37.40;2.10;;;22.50;1.00;;;;;;5026074;28;20426;-83
2023/08/31 12:40:54;;;;;;;32.80;1.70;;;22.50;1.00;;;;;;5028016;28;20481;-84
2023/08/31 12:43:20;;;;;;;30.70;1.30;;;22.40;1.00;;;;;;5022802;28;20505;-84
2023/08/31 12:46:09;;;;;;;33.30;1.90;;;22.10;1.00;;;;;;5026141;28;20424;-83
2023/08/31 12:48:49;;;;;;;35.70;1.80;;;22.10;1.00;;;;;;5021261;28;20192;-83
2023/08/31 12:51:16;;;;;;;32.13;1.80;;;22.00;1.00;;;;;;5030660;28;20473;-78
2023/08/31 12:53:43;;;;;;;31.97;1.60;;;22.00;1.00;;;;;;5022244;28;20427;-78
2023/08/31 12:56:09;;;;;;;32.97;1.90;;;21.90;1.00;;;;;;5026115;28;20443;-79
2023/08/31 12:58:43;;;;;;;31.33;1.57;;;21.80;1.00;;;;;;5028875;28;20426;-79
2023/08/31 13:01:09;;;;;;;33.27;1.50;;;21.80;1.00;;;;;;5017345;28;20227;-78
2023/08/31 13:03:55;;;;;;;29.97;1.40;;;21.80;1.00;;;;;;5024964;28;20439;-78
2023/08/31 13:06:20;;;;;;;29.80;1.37;;;22.00;1.00;;;;;;5031497;28;20187;-86
2023/08/31 13:08:55;;;;;;;31.50;2.10;;;21.90;1.00;;;;;;5029746;28;20809;-85
2023/08/31 13:11:23;;;;;;;30.40;1.93;;;22.30;1.00;;;;;;5032241;28;20288;-82
2023/08/31 13:18:06;;;;;;;30.67;1.60;;;22.10;1.00;;;;;;5026269;28;20378;-86
2023/08/31 13:21:12;;;;;;;32.53;1.90;;;22.20;1.00;;;;;;5026556;28;20797;-83
2023/08/31 13:23:44;;;;;;;31.97;1.90;;;22.00;1.00;;;;;;5021924;28;20428;-82
2023/08/31 13:26:09;;;;;;;32.03;1.67;;;22.00;1.00;;;;;;5021554;28;20565;-82
2023/08/31 13:29:12;;;;;;;29.93;1.70;;;22.00;1.00;;;;;;5029578;28;20514;-83
2023/08/31 13:31:39;;;;;;;30.20;1.90;;;21.90;1.00;;;;;;5025692;28;20726;-85
2023/08/31 13:34:25;;;;;;;29.90;1.53;;;21.80;1.00;;;;;;5014597;28;20443;-86
2023/08/31 13:37:24;;;;;;;30.43;1.93;;;22.20;1.00;;;;;;5028076;28;20514;-85
2023/08/31 13:40:30;;;;;;;29.70;1.70;;;22.20;1.00;;;;;;5030680;28;20424;-85
2023/08/31 13:46:31;;;;;;;30.40;1.63;;;22.00;1.00;;;;;;5025393;28;20455;-86
2023/08/31 13:49:13;;;;;;;30.10;1.80;;;22.10;1.00;;;;;;5027347;28;20429;-86
2023/08/31 13:52:01;;;;;;;31.50;2.10;;;22.00;1.00;;;;;;5040557;28;20498;-84
2023/08/31 13:55:00;;;;;;;30.10;1.73;;;22.30;1.00;;;;;;5023818;28;20427;-84
2023/08/31 13:57:55;;;;;;;31.83;1.80;;;22.30;1.00;;;;;;5028655;28;20507;-84
2023/08/31 14:00:31;;;;;;;31.00;1.67;;;22.30;1.00;;;;;;5020619;28;20436;-84
2023/08/31 14:03:19;;;;;;;31.47;1.90;;;22.20;1.00;;;;;;5028907;28;20801;-83
2023/08/31 14:06:30;;;;;;;34.73;1.93;;;22.10;1.00;;;;;;5025231;28;20441;-84
2023/08/31 14:08:56;;;;;;;30.97;2.10;;;22.10;1.00;;;;;;5025767;28;20439;-79
2023/08/31 14:11:22;;;;;;;30.77;2.13;;;22.10;1.00;;;;;;5025463;28;20473;-79
2023/08/31 14:14:03;;;;;;;33.03;2.27;;;22.20;1.00;;;;;;5026414;28;20204;-79
2023/08/31 14:16:48;;;;;;;32.57;1.90;;;22.30;1.00;;;;;;5022480;28;20177;-80
2023/08/31 14:19:19;;;;;;;31.13;1.50;;;22.30;1.00;;;;;;5013709;28;20440;-78
2023/08/31 14:21:49;;;;;;;31.60;1.80;;;22.40;1.00;;;;;;5028279;28;20435;-78
2023/08/31 14:24:25;;;;;;;37.23;2.00;;;22.30;1.00;;;;;;5029918;28;20426;-77
2023/08/31 14:26:51;;;;;;;30.40;1.60;;;22.20;1.00;;;;;;5032476;28;20449;-77